Airfield :







YOU CAN JOIN US ON...

 
LOGIN :

Register | Disclaimer

   EN    FR    IT 

 









Legend :    VFR   Marginal VFR   IFR   Intensive IFR   Very Intensive IFR
Visi :
Ceiling :
>= 8 km
>= 3000ft
5 to 8 km
1000 to 3000 ft
1500m to 5 km
500 to 1000 ft
800 to 1500m
200 to 500 ft
< 800m
< 200 ft
Symbols :   Thunderstorms  Fog  Heavy snow  Heavy precipitations  Wind > 20 kt






- Airport Elevation : 266 ft
- IATA code : MHT


KMHT - Manchester

CURRENT METAR :
  • 291653Z 19012G20KT 10SM BKN033 BKN180 BKN250 29/20 A2992 RMK AO2 SLP138 T02940200

EXPIRED METARs :
  • 291553Z 19017G21KT 10SM SCT030 SCT180 BKN250 29/20 A2993 RMK AO2 SLP144 T02890200
  • 291453Z 20009G17KT 10SM FEW025 SCT150 BKN250 28/19 A2995 RMK AO2 SLP148 T02830194 58016

TAF KMHT
Valid from the 29 at 15:00 until the 30 at 12:00 UTC


291505Z 2915/3012 19011KT P6SM SCT025
FM291700 20011G18KT P6SM BKN035
FM300200 18011KT P6SM OVC015
KZBW FIR / North America



MET'MAP, your aeronautical weather chart ! - Copyright ORBIFLY December 2007 - Disclaimer

ORBIFLY MET'MAP TEAM :

Programming & Development : Alexandra Zaïnal
Concept & original design : Baudouin d'Aumeries
Assistance for programming : Marc-Olivier Méhu
Technical & hardware support : Manuel Goepfert

Contact : metmap@orbifly.com




SOURCES & CREDITS :

   NOAA